Time;durP1;ratioP1;P1;durP2;ratioP2;P2;SDS_P1;SDS_P2;PMS_P1;PMS_P2;Temp;Humidity;BMP_temperature;BMP_pressure;BME280_temperature;BME280_humidity;BME280_pressure;Samples;Min_cycle;Max_cycle;Signal;HPM_P1;HPM_P2
2023/09/11 00:00:24;;;;;;;8.23;7.45;;;20.50;70.00;;;;;;5053019;28;20068;-76
2023/09/11 00:02:49;;;;;;;8.40;7.70;;;20.70;69.60;;;;;;5052924;28;20017;-75
2023/09/11 00:05:15;;;;;;;9.65;7.75;;;20.70;69.20;;;;;;5052723;28;20029;-75
2023/09/11 00:07:40;;;;;;;10.43;7.68;;;20.70;68.90;;;;;;5052570;28;20104;-76
2023/09/11 00:10:06;;;;;;;10.52;8.13;;;20.50;69.50;;;;;;5052705;28;20540;-75
2023/09/11 00:12:32;;;;;;;8.63;7.70;;;20.50;69.80;;;;;;5052795;28;20382;-74
2023/09/11 00:14:57;;;;;;;9.48;7.88;;;20.40;70.00;;;;;;5052822;28;20029;-74
2023/09/11 00:17:23;;;;;;;11.05;8.43;;;20.30;70.20;;;;;;5052761;28;20076;-75
2023/09/11 00:19:48;;;;;;;10.07;7.15;;;20.10;70.70;;;;;;5052803;28;20352;-74
2023/09/11 00:22:14;;;;;;;12.50;7.93;;;20.10;71.00;;;;;;5052683;28;20025;-75
2023/09/11 00:24:39;;;;;;;10.32;8.43;;;19.90;71.90;;;;;;5052648;28;20096;-76
2023/09/11 00:27:05;;;;;;;11.82;7.88;;;19.80;72.60;;;;;;5052475;28;20123;-75
2023/09/11 00:29:30;;;;;;;9.95;8.55;;;19.70;72.90;;;;;;5052527;28;20433;-76
2023/09/11 00:31:56;;;;;;;11.07;8.95;;;19.70;73.30;;;;;;5051274;28;20364;-76
2023/09/11 00:34:21;;;;;;;11.73;8.32;;;19.60;73.60;;;;;;5052547;28;20471;-75
2023/09/11 00:36:47;;;;;;;9.00;8.10;;;19.60;73.80;;;;;;5052478;28;20052;-75
2023/09/11 00:39:13;;;;;;;12.35;8.57;;;19.60;73.70;;;;;;5052492;28;20035;-75
2023/09/11 00:41:40;;;;;;;10.25;8.35;;;19.60;73.50;;;;;;5052458;28;20017;-75
2023/09/11 00:44:06;;;;;;;8.98;8.07;;;19.70;73.60;;;;;;5052472;28;20031;-75
2023/09/11 00:46:31;;;;;;;9.07;8.05;;;19.70;73.30;;;;;;5052442;28;20021;-75
2023/09/11 00:48:58;;;;;;;9.38;8.43;;;19.70;73.10;;;;;;5034403;28;20044;-74
2023/09/11 00:51:24;;;;;;;10.52;8.30;;;19.70;73.10;;;;;;5052374;28;20071;-76
2023/09/11 00:53:50;;;;;;;10.68;8.77;;;19.60;73.30;;;;;;5052356;28;20029;-76
2023/09/11 00:56:16;;;;;;;10.32;8.63;;;19.60;74.00;;;;;;5052151;28;20029;-78
2023/09/11 00:58:43;;;;;;;10.70;9.30;;;19.40;74.70;;;;;;5052341;28;20170;-75
2023/09/11 01:01:10;;;;;;;9.85;8.60;;;19.30;75.30;;;;;;5052321;28;20739;-75
2023/09/11 01:03:37;;;;;;;10.27;9.20;;;19.20;75.50;;;;;;5052202;28;20029;-75
2023/09/11 01:06:02;;;;;;;11.15;9.32;;;19.20;76.00;;;;;;5052286;28;20099;-75
2023/09/11 01:08:28;;;;;;;10.63;9.50;;;19.20;76.30;;;;;;5052113;28;20163;-76
2023/09/11 01:10:54;;;;;;;11.80;9.50;;;19.10;76.80;;;;;;5056128;28;20447;-76
2023/09/11 01:13:21;;;;;;;12.80;9.68;;;19.10;76.90;;;;;;5056058;28;20032;-76
2023/09/11 01:15:59;;;;;;;10.00;8.98;;;19.10;77.00;;;;;;5056130;28;20525;-75
2023/09/11 01:19:08;;;;;;;12.18;9.15;;;19.20;77.00;;;;;;5037856;28;20048;-75
2023/09/11 01:21:39;;;;;;;9.80;8.88;;;19.10;77.20;;;;;;4974959;28;20061;-77
2023/09/11 01:24:36;;;;;;;12.35;9.35;;;19.20;77.00;;;;;;4974856;28;20034;-78
2023/09/11 01:27:43;;;;;;;10.77;9.68;;;19.10;77.10;;;;;;5032713;28;20045;-78
2023/09/11 01:30:11;;;;;;;14.25;9.75;;;19.00;77.40;;;;;;5055726;28;20037;-79
2023/09/11 01:32:38;;;;;;;9.93;9.02;;;18.90;78.00;;;;;;5055690;28;20025;-79
2023/09/11 01:35:04;;;;;;;13.27;10.32;;;18.90;78.00;;;;;;5037803;28;20132;-79
2023/09/11 01:37:31;;;;;;;13.93;9.60;;;18.90;77.90;;;;;;5055844;28;20475;-76
2023/09/11 01:39:57;;;;;;;12.68;9.50;;;18.80;77.70;;;;;;5055474;28;20021;-74
2023/09/11 01:42:30;;;;;;;11.65;10.30;;;18.80;78.10;;;;;;5055573;28;20490;-78
2023/09/11 01:44:57;;;;;;;11.07;9.98;;;18.70;78.90;;;;;;5055568;28;20429;-78
2023/09/11 01:47:25;;;;;;;10.38;9.18;;;18.70;78.70;;;;;;5055774;28;20013;-75
2023/09/11 01:49:52;;;;;;;11.48;10.27;;;18.70;78.80;;;;;;5055667;28;20029;-77
2023/09/11 01:52:19;;;;;;;10.98;9.75;;;18.70;78.90;;;;;;5055533;28;20139;-77
2023/09/11 01:54:44;;;;;;;10.25;9.35;;;18.70;79.10;;;;;;5037549;28;20056;-78
2023/09/11 01:57:10;;;;;;;11.52;10.32;;;18.70;79.20;;;;;;5055443;28;20507;-77
2023/09/11 01:59:36;;;;;;;10.77;9.65;;;18.60;79.30;;;;;;5055286;28;20021;-78
2023/09/11 02:02:01;;;;;;;11.80;10.15;;;18.60;79.50;;;;;;5055339;28;20055;-76
2023/09/11 02:04:28;;;;;;;11.95;10.30;;;18.50;79.60;;;;;;5037583;28;20463;-78
2023/09/11 02:06:53;;;;;;;12.05;10.68;;;18.50;79.70;;;;;;5055464;28;20119;-79
2023/09/11 02:09:19;;;;;;;13.07;9.90;;;18.50;79.50;;;;;;5055230;28;20116;-77
2023/09/11 02:11:44;;;;;;;11.35;10.07;;;18.50;80.30;;;;;;5055086;28;20075;-78
2023/09/11 02:14:10;;;;;;;11.48;10.35;;;18.60;79.40;;;;;;5055155;28;20530;-77
2023/09/11 02:16:36;;;;;;;13.00;10.07;;;18.50;80.30;;;;;;5055232;28;20029;-79
2023/09/11 02:19:01;;;;;;;11.40;10.13;;;18.50;79.60;;;;;;5054999;28;20024;-78
2023/09/11 02:21:27;;;;;;;11.57;10.35;;;18.40;79.80;;;;;;5054346;28;20155;-78
2023/09/11 02:23:53;;;;;;;11.90;10.75;;;18.50;79.90;;;;;;5054997;28;20370;-78
2023/09/11 02:26:18;;;;;;;11.85;10.65;;;18.50;79.60;;;;;;5054814;28;20029;-78
2023/09/11 02:28:44;;;;;;;11.15;10.05;;;18.50;79.60;;;;;;5054836;28;20048;-78
2023/09/11 02:31:09;;;;;;;15.63;10.60;;;18.50;79.80;;;;;;5036811;28;20490;-78
2023/09/11 02:33:35;;;;;;;15.10;10.27;;;18.50;79.80;;;;;;5054759;28;20025;-77
2023/09/11 02:36:01;;;;;;;13.30;10.32;;;18.40;79.90;;;;;;5054672;28;20025;-81
2023/09/11 02:38:26;;;;;;;11.55;10.15;;;18.40;80.00;;;;;;5054799;28;20029;-79
2023/09/11 02:40:52;;;;;;;16.27;11.05;;;18.40;80.10;;;;;;5054772;28;20029;-81
2023/09/11 02:43:18;;;;;;;12.82;10.40;;;18.40;80.20;;;;;;5054568;28;20079;-80
2023/09/11 02:45:44;;;;;;;11.57;9.77;;;18.30;80.40;;;;;;5036783;28;20017;-81
2023/09/11 02:48:10;;;;;;;12.10;10.65;;;18.30;80.40;;;;;;5054554;28;20112;-78
2023/09/11 02:50:35;;;;;;;11.90;10.82;;;18.30;80.60;;;;;;5054493;28;20120;-79
2023/09/11 02:53:01;;;;;;;13.20;9.93;;;18.30;80.70;;;;;;5054445;28;20029;-77
2023/09/11 02:55:27;;;;;;;14.25;10.57;;;18.30;81.40;;;;;;5054317;28;20025;-79
2023/09/11 02:57:52;;;;;;;11.30;10.18;;;18.30;80.60;;;;;;5054318;28;20025;-81
2023/09/11 03:00:18;;;;;;;10.77;9.75;;;18.30;80.60;;;;;;5054242;28;20025;-80
2023/09/11 03:02:44;;;;;;;11.40;10.27;;;18.30;80.70;;;;;;5036343;28;20022;-81
2023/09/11 03:05:10;;;;;;;11.68;10.45;;;18.30;80.50;;;;;;5054178;28;20021;-74
2023/09/11 03:07:36;;;;;;;11.40;10.27;;;18.30;80.50;;;;;;5054095;28;20028;-78
2023/09/11 03:10:03;;;;;;;12.43;10.60;;;18.20;80.70;;;;;;5054135;28;20033;-78
2023/09/11 03:12:29;;;;;;;14.73;10.65;;;18.10;80.90;;;;;;5054402;28;20029;-81
2023/09/11 03:14:58;;;;;;;11.80;10.57;;;18.10;81.00;;;;;;5053969;28;20379;-80
2023/09/11 03:17:24;;;;;;;12.27;10.98;;;18.10;81.20;;;;;;5054187;28;20013;-83
2023/09/11 03:19:50;;;;;;;15.20;11.05;;;18.10;81.00;;;;;;5036164;28;20383;-78
2023/09/11 03:22:15;;;;;;;14.10;10.90;;;18.10;81.20;;;;;;5053953;28;20025;-78
2023/09/11 03:24:41;;;;;;;16.08;10.73;;;18.10;80.90;;;;;;5035998;28;20431;-77
2023/09/11 03:27:06;;;;;;;10.77;9.68;;;18.10;80.60;;;;;;5053858;28;20055;-82
2023/09/11 03:29:32;;;;;;;12.57;10.20;;;18.10;80.80;;;;;;5053661;28;20033;-81
2023/09/11 03:31:57;;;;;;;12.70;10.57;;;18.00;80.70;;;;;;5035123;28;20074;-81
2023/09/11 03:34:23;;;;;;;11.32;10.13;;;18.00;80.70;;;;;;5053950;28;20029;-82
2023/09/11 03:36:48;;;;;;;12.38;10.35;;;18.00;80.80;;;;;;5053835;28;20083;-82
2023/09/11 03:39:14;;;;;;;12.27;9.80;;;18.00;81.00;;;;;;5053659;28;20067;-83
2023/09/11 03:41:39;;;;;;;12.20;10.48;;;18.00;81.40;;;;;;5053611;28;20037;-77
2023/09/11 03:44:05;;;;;;;10.27;9.23;;;17.90;81.40;;;;;;5053526;28;20032;-81
2023/09/11 03:46:31;;;;;;;11.65;10.45;;;17.90;81.30;;;;;;5053414;28;20365;-75
2023/09/11 03:48:56;;;;;;;11.25;10.15;;;17.90;81.20;;;;;;5053200;28;20432;-74
2023/09/11 03:51:22;;;;;;;17.65;10.32;;;17.90;81.20;;;;;;5053279;28;20140;-78
2023/09/11 03:53:49;;;;;;;15.48;10.50;;;17.90;81.40;;;;;;5053206;28;20530;-82
2023/09/11 03:56:15;;;;;;;14.98;10.43;;;17.90;81.40;;;;;;5052947;28;20094;-81
2023/09/11 03:58:43;;;;;;;12.23;9.95;;;17.90;82.20;;;;;;5053470;28;20096;-84
2023/09/11 04:01:08;;;;;;;12.52;10.55;;;17.80;81.40;;;;;;5053357;28;20029;-84
2023/09/11 04:03:34;;;;;;;10.98;9.88;;;17.80;81.70;;;;;;5053370;28;20302;-82
2023/09/11 04:05:59;;;;;;;12.95;10.18;;;17.80;81.60;;;;;;5052810;28;20175;-81
2023/09/11 04:08:25;;;;;;;13.43;10.35;;;17.70;82.10;;;;;;5052950;28;20029;-78
2023/09/11 04:10:51;;;;;;;13.57;10.02;;;17.70;82.20;;;;;;5052831;28;20021;-80
2023/09/11 04:13:16;;;;;;;11.15;10.00;;;17.70;82.30;;;;;;5052981;28;20092;-79
2023/09/11 04:15:43;;;;;;;12.23;10.13;;;17.70;82.30;;;;;;5052908;28;20135;-76
2023/09/11 04:18:09;;;;;;;11.95;10.73;;;17.70;82.30;;;;;;5034794;28;20071;-75
2023/09/11 04:20:34;;;;;;;12.50;10.45;;;17.70;82.30;;;;;;5052915;28;20040;-78
2023/09/11 04:23:00;;;;;;;13.38;10.02;;;17.80;82.20;;;;;;5052963;28;20422;-76
2023/09/11 04:25:27;;;;;;;15.02;10.93;;;17.80;82.00;;;;;;5052764;28;20068;-75
2023/09/11 04:27:52;;;;;;;11.13;10.05;;;17.80;81.80;;;;;;5052448;28;20090;-75
2023/09/11 04:30:18;;;;;;;11.00;9.88;;;17.80;81.50;;;;;;5052705;28;20041;-77
2023/09/11 04:32:44;;;;;;;11.95;10.75;;;17.80;81.40;;;;;;5052547;28;20017;-79
2023/09/11 04:35:10;;;;;;;13.52;10.27;;;17.80;81.40;;;;;;5052753;28;20356;-79
2023/09/11 04:37:36;;;;;;;12.93;10.32;;;17.80;81.40;;;;;;5052695;28;20356;-79
2023/09/11 04:40:05;;;;;;;12.90;9.70;;;17.80;81.40;;;;;;5053042;28;20025;-76
2023/09/11 04:42:31;;;;;;;14.07;10.15;;;17.80;81.40;;;;;;5054938;28;20021;-75
2023/09/11 04:44:59;;;;;;;14.80;9.75;;;17.80;81.30;;;;;;5056995;28;20036;-75
2023/09/11 04:47:26;;;;;;;14.02;9.27;;;17.90;81.20;;;;;;5056808;28;20040;-75
2023/09/11 04:49:52;;;;;;;12.70;10.23;;;17.80;81.50;;;;;;5056722;28;20041;-76
2023/09/11 04:52:17;;;;;;;13.77;9.95;;;17.90;81.70;;;;;;5056763;28;20078;-75
2023/09/11 04:54:43;;;;;;;15.50;10.68;;;17.90;81.50;;;;;;5038905;28;20029;-74
2023/09/11 04:57:08;;;;;;;13.68;10.60;;;17.80;81.50;;;;;;5056599;28;20033;-74
2023/09/11 04:59:34;;;;;;;14.18;10.23;;;17.80;81.50;;;;;;5056689;28;20205;-75
2023/09/11 05:02:00;;;;;;;14.77;10.10;;;17.80;81.60;;;;;;5056608;28;20489;-75
2023/09/11 05:04:25;;;;;;;12.13;10.00;;;17.80;81.70;;;;;;5056600;28;20383;-78
2023/09/11 05:06:51;;;;;;;15.27;9.95;;;17.80;81.70;;;;;;5056454;28;20105;-75
2023/09/11 05:09:16;;;;;;;15.70;10.50;;;17.70;81.70;;;;;;5056222;28;20045;-76
2023/09/11 05:11:42;;;;;;;16.27;10.35;;;17.80;81.70;;;;;;5056259;28;20040;-74
2023/09/11 05:14:08;;;;;;;11.98;9.70;;;17.80;81.50;;;;;;5056072;28;20029;-75
2023/09/11 05:16:33;;;;;;;12.05;9.50;;;17.80;81.50;;;;;;5054856;28;20124;-74
2023/09/11 05:18:59;;;;;;;20.30;10.25;;;17.80;81.20;;;;;;5056456;28;20467;-75
2023/09/11 05:21:25;;;;;;;13.48;9.23;;;17.80;81.10;;;;;;5056277;28;20040;-75
2023/09/11 05:23:51;;;;;;;12.10;9.23;;;17.80;81.10;;;;;;5060375;28;20029;-75
2023/09/11 05:26:17;;;;;;;13.27;9.40;;;17.80;81.10;;;;;;5056948;28;20032;-74
2023/09/11 05:28:42;;;;;;;12.63;9.75;;;17.90;81.10;;;;;;5056074;28;20033;-74
2023/09/11 05:31:08;;;;;;;11.55;9.65;;;17.90;81.10;;;;;;5055972;28;20025;-75
2023/09/11 05:33:34;;;;;;;11.82;9.30;;;17.90;80.80;;;;;;5055077;28;20033;-76
2023/09/11 05:36:01;;;;;;;10.65;9.60;;;17.90;80.90;;;;;;5054928;28;20375;-75
2023/09/11 05:38:26;;;;;;;12.90;9.75;;;17.90;80.70;;;;;;5036807;28;20021;-76
2023/09/11 05:40:52;;;;;;;10.77;9.68;;;18.00;80.60;;;;;;5054709;28;20028;-75
2023/09/11 05:43:17;;;;;;;12.27;9.25;;;18.10;80.50;;;;;;5054753;28;20471;-76
2023/09/11 05:45:43;;;;;;;16.05;9.35;;;18.10;80.10;;;;;;5053341;28;20426;-76
2023/09/11 05:48:11;;;;;;;13.25;9.23;;;18.20;80.10;;;;;;5054672;28;20055;-77
2023/09/11 05:50:39;;;;;;;9.82;8.82;;;18.20;79.60;;;;;;5054581;28;20028;-76
2023/09/11 05:53:06;;;;;;;12.88;8.77;;;18.30;79.50;;;;;;5054634;28;20021;-75
2023/09/11 05:55:33;;;;;;;12.95;9.55;;;18.40;79.10;;;;;;5053582;28;20017;-76
2023/09/11 05:58:02;;;;;;;14.18;9.45;;;18.40;78.80;;;;;;5051833;28;20104;-75
2023/09/11 06:00:28;;;;;;;14.93;9.38;;;18.40;78.70;;;;;;5054504;28;20483;-75
2023/09/11 06:02:54;;;;;;;10.85;8.40;;;18.50;78.80;;;;;;5054543;28;20107;-76
2023/09/11 06:05:19;;;;;;;12.80;8.45;;;18.60;78.20;;;;;;5059291;28;20419;-75
2023/09/11 06:07:45;;;;;;;9.15;8.25;;;18.70;78.10;;;;;;5054768;28;20036;-78
2023/09/11 06:10:12;;;;;;;10.65;8.80;;;18.80;77.70;;;;;;5054511;28;20036;-78
2023/09/11 06:12:38;;;;;;;11.55;8.38;;;18.80;77.50;;;;;;5037059;28;20151;-75
2023/09/11 06:15:05;;;;;;;13.05;9.23;;;18.90;77.50;;;;;;5054715;28;20048;-77
2023/09/11 06:17:31;;;;;;;11.68;7.75;;;19.00;77.00;;;;;;5054991;28;20047;-76
2023/09/11 06:19:56;;;;;;;12.05;8.90;;;19.20;76.30;;;;;;5036873;28;20033;-73
2023/09/11 06:22:22;;;;;;;9.25;8.25;;;19.40;75.80;;;;;;5054647;28;20376;-75
2023/09/11 06:24:48;;;;;;;10.52;8.13;;;19.60;75.60;;;;;;5054874;28;20021;-75
2023/09/11 06:27:13;;;;;;;12.02;8.20;;;19.70;74.90;;;;;;5054764;28;20414;-74
2023/09/11 06:29:39;;;;;;;14.25;8.75;;;19.90;74.00;;;;;;5036793;28;20445;-75
2023/09/11 06:32:06;;;;;;;10.95;7.93;;;20.10;73.40;;;;;;5036821;28;20065;-75
2023/09/11 06:34:32;;;;;;;11.52;7.93;;;20.20;72.90;;;;;;5036815;28;20074;-75
2023/09/11 06:36:58;;;;;;;10.20;8.60;;;20.20;72.50;;;;;;5054561;28;20021;-77
2023/09/11 06:39:24;;;;;;;10.48;8.25;;;20.30;72.20;;;;;;5036940;28;20025;-76
2023/09/11 06:41:49;;;;;;;12.20;8.18;;;20.40;71.90;;;;;;5036503;28;20024;-75
2023/09/11 06:44:15;;;;;;;12.40;8.15;;;20.50;71.80;;;;;;5036527;28;20503;-74
2023/09/11 06:46:41;;;;;;;13.27;7.82;;;20.50;71.60;;;;;;5039352;28;20044;-75
2023/09/11 06:49:06;;;;;;;16.40;8.50;;;20.60;71.40;;;;;;5036525;28;20037;-73
2023/09/11 06:51:33;;;;;;;8.65;7.78;;;20.70;71.30;;;;;;5036608;28;20021;-76
2023/09/11 06:54:00;;;;;;;12.07;8.07;;;20.80;71.10;;;;;;5036927;28;20035;-74
2023/09/11 06:56:26;;;;;;;9.00;8.00;;;20.80;71.10;;;;;;5036605;28;20047;-76
2023/09/11 06:58:52;;;;;;;9.63;7.60;;;20.90;71.00;;;;;;5036549;28;20025;-76
2023/09/11 07:01:17;;;;;;;11.80;7.28;;;20.90;71.10;;;;;;5036680;28;20021;-77
2023/09/11 07:03:46;;;;;;;12.07;8.25;;;21.00;70.80;;;;;;5036484;28;20048;-76
2023/09/11 07:06:12;;;;;;;10.38;8.00;;;21.10;70.70;;;;;;5036578;28;20024;-76
2023/09/11 07:08:37;;;;;;;10.80;7.97;;;21.20;70.60;;;;;;5036473;28;20043;-76
2023/09/11 07:11:03;;;;;;;12.07;8.05;;;21.30;70.30;;;;;;5036362;28;20107;-75
2023/09/11 07:13:29;;;;;;;10.15;7.20;;;21.40;70.00;;;;;;5036519;28;20116;-76
2023/09/11 07:15:58;;;;;;;10.13;7.20;;;21.50;69.60;;;;;;5053993;28;20028;-75
2023/09/11 07:18:25;;;;;;;13.40;7.07;;;21.70;69.30;;;;;;5054177;28;20067;-77
2023/09/11 07:20:54;;;;;;;8.25;7.28;;;21.90;68.80;;;;;;5036159;28;20127;-75
2023/09/11 07:23:22;;;;;;;8.70;7.45;;;22.00;68.30;;;;;;5053879;28;20025;-76
2023/09/11 07:25:47;;;;;;;10.02;7.57;;;22.20;67.80;;;;;;5054334;28;20060;-76
2023/09/11 07:28:14;;;;;;;7.63;6.60;;;22.40;67.30;;;;;;5057452;28;20052;-76
2023/09/11 07:30:39;;;;;;;11.50;7.85;;;22.50;67.20;;;;;;5036814;28;20096;-77
2023/09/11 07:33:05;;;;;;;7.85;7.05;;;22.70;66.40;;;;;;5037420;28;20029;-81
2023/09/11 07:35:31;;;;;;;10.43;7.03;;;22.80;66.10;;;;;;5036175;28;20398;-80
2023/09/11 07:37:59;;;;;;;9.63;7.18;;;22.90;65.70;;;;;;5053432;28;20060;-82
2023/09/11 07:40:27;;;;;;;11.07;7.05;;;23.10;65.10;;;;;;5035741;28;20518;-79
2023/09/11 07:42:54;;;;;;;10.73;7.10;;;23.20;65.20;;;;;;5035631;28;20120;-82
2023/09/11 07:45:22;;;;;;;10.27;6.50;;;23.30;65.40;;;;;;5051888;28;20139;-81
2023/09/11 07:47:48;;;;;;;14.52;7.20;;;23.40;64.20;;;;;;5035169;28;20028;-78
2023/09/11 07:50:14;;;;;;;10.77;7.47;;;23.60;64.20;;;;;;5035018;28;20037;-77
2023/09/11 07:52:40;;;;;;;10.70;6.75;;;23.70;64.10;;;;;;5019122;28;20052;-81
2023/09/11 07:55:06;;;;;;;9.95;6.95;;;23.80;63.80;;;;;;5019056;28;20029;-75
2023/09/11 07:57:32;;;;;;;9.90;7.30;;;23.90;63.20;;;;;;5035338;28;20083;-76
2023/09/11 08:00:04;;;;;;;9.48;7.18;;;24.00;63.10;;;;;;5035224;28;20025;-77
2023/09/11 08:02:30;;;;;;;9.18;6.68;;;24.10;63.10;;;;;;5035157;28;20028;-75
2023/09/11 08:04:57;;;;;;;8.50;6.60;;;24.20;62.80;;;;;;5053129;28;20029;-77
2023/09/11 08:07:23;;;;;;;9.73;6.60;;;24.30;62.80;;;;;;5018712;28;20029;-77
2023/09/11 08:09:52;;;;;;;8.98;6.00;;;24.50;63.20;;;;;;5052912;28;20037;-76
2023/09/11 08:12:18;;;;;;;12.63;7.55;;;24.60;62.80;;;;;;5035363;28;20376;-76
2023/09/11 08:14:44;;;;;;;9.80;7.03;;;24.70;62.60;;;;;;5035274;28;20059;-76
2023/09/11 08:17:10;;;;;;;9.93;7.20;;;24.70;62.20;;;;;;5035087;28;20025;-75
2023/09/11 08:19:36;;;;;;;13.52;7.38;;;24.80;61.50;;;;;;5034401;28;20479;-75
2023/09/11 08:22:04;;;;;;;7.75;6.90;;;24.80;60.60;;;;;;5034741;28;20025;-76
2023/09/11 08:24:30;;;;;;;12.07;7.32;;;24.80;61.70;;;;;;5034500;28;20033;-75
2023/09/11 08:26:56;;;;;;;10.75;7.60;;;24.90;62.10;;;;;;5031239;28;20439;-74
2023/09/11 08:29:22;;;;;;;17.17;7.65;;;25.00;62.20;;;;;;5030986;28;20447;-76
2023/09/11 08:31:47;;;;;;;12.13;7.85;;;25.20;61.40;;;;;;5031415;28;20095;-76
2023/09/11 08:34:13;;;;;;;16.85;7.88;;;25.30;60.90;;;;;;5014805;28;20112;-76
2023/09/11 08:36:39;;;;;;;11.77;7.38;;;25.50;60.40;;;;;;5031082;28;20025;-74
2023/09/11 08:39:04;;;;;;;9.45;6.80;;;25.60;60.40;;;;;;5031441;28;20600;-76
2023/09/11 08:41:31;;;;;;;16.25;7.20;;;25.70;60.40;;;;;;5030972;28;20447;-76
2023/09/11 08:43:57;;;;;;;11.60;7.20;;;25.80;58.20;;;;;;5031569;28;20021;-76
2023/09/11 08:46:23;;;;;;;9.65;6.47;;;25.90;58.00;;;;;;5031440;28;20444;-76
2023/09/11 08:48:54;;;;;;;15.20;7.22;;;26.00;57.80;;;;;;5036190;28;20029;-76
2023/09/11 08:51:48;;;;;;;7.47;6.20;;;26.20;55.80;;;;;;5031655;28;20028;-76
2023/09/11 08:54:16;;;;;;;8.07;6.30;;;26.30;54.40;;;;;;5031398;28;20026;-75
2023/09/11 08:56:43;;;;;;;9.50;6.45;;;26.50;54.10;;;;;;5031500;28;20328;-78
2023/09/11 08:59:10;;;;;;;9.73;6.47;;;26.70;54.40;;;;;;5031449;28;20121;-76
2023/09/11 09:01:37;;;;;;;8.80;6.20;;;26.80;52.60;;;;;;5036714;28;20037;-76
2023/09/11 09:04:04;;;;;;;12.48;7.03;;;26.90;52.20;;;;;;5031925;28;20463;-77
2023/09/11 09:06:30;;;;;;;12.55;6.43;;;27.00;50.60;;;;;;5034540;28;20036;-78
2023/09/11 09:08:56;;;;;;;9.13;6.53;;;27.00;49.50;;;;;;5034564;28;20033;-75
2023/09/11 09:11:24;;;;;;;10.00;6.38;;;27.20;49.50;;;;;;5034557;28;20037;-75
2023/09/11 09:13:52;;;;;;;12.18;6.18;;;27.30;48.40;;;;;;5034750;28;20098;-76
2023/09/11 09:16:34;;;;;;;6.38;5.65;;;27.30;45.50;;;;;;5033975;28;20037;-78
2023/09/11 09:19:06;;;;;;;7.93;5.53;;;27.40;44.30;;;;;;5017831;28;20026;-76
2023/09/11 09:21:33;;;;;;;9.88;5.72;;;27.60;43.50;;;;;;5040227;28;20368;-75
2023/09/11 09:24:09;;;;;;;7.47;4.85;;;27.80;42.80;;;;;;5035422;28;20075;-74
2023/09/11 09:26:58;;;;;;;11.30;5.85;;;27.90;41.20;;;;;;5036894;28;20107;-75
2023/09/11 09:29:24;;;;;;;10.43;5.85;;;28.10;40.40;;;;;;5035637;28;20033;-74
2023/09/11 09:31:50;;;;;;;9.27;5.35;;;28.10;40.60;;;;;;5051171;28;20071;-76
2023/09/11 09:34:15;;;;;;;9.80;5.65;;;28.20;40.00;;;;;;5049618;28;20104;-76
2023/09/11 09:36:52;;;;;;;9.77;4.53;;;28.30;40.10;;;;;;5037741;28;20415;-74
2023/09/11 09:39:20;;;;;;;10.25;4.50;;;28.50;38.70;;;;;;5035916;28;20033;-74
2023/09/11 09:41:56;;;;;;;9.38;5.20;;;28.70;38.40;;;;;;5022341;28;20060;-73
2023/09/11 09:44:32;;;;;;;7.93;5.18;;;28.80;38.90;;;;;;5037100;28;20471;-74
2023/09/11 09:47:13;;;;;;;10.38;5.10;;;29.00;38.50;;;;;;5045248;28;20083;-73
2023/09/11 09:49:54;;;;;;;8.15;5.18;;;28.90;38.60;;;;;;5032262;28;20552;-75
2023/09/11 09:52:25;;;;;;;6.50;5.05;;;29.10;38.80;;;;;;5042795;28;20029;-76
2023/09/11 09:54:54;;;;;;;7.53;5.13;;;29.30;38.60;;;;;;5037737;28;20024;-75
2023/09/11 09:57:21;;;;;;;9.85;4.50;;;29.20;35.10;;;;;;5041756;28;20013;-75
2023/09/11 09:59:54;;;;;;;7.80;5.30;;;29.40;35.30;;;;;;5045675;28;20057;-74
2023/09/11 10:02:26;;;;;;;9.60;5.13;;;29.40;35.80;;;;;;5046497;28;20013;-76
2023/09/11 10:04:57;;;;;;;6.22;4.25;;;29.60;34.60;;;;;;5051992;28;20462;-78
2023/09/11 10:07:39;;;;;;;7.95;4.90;;;29.70;33.80;;;;;;5036592;28;20025;-77
2023/09/11 10:10:28;;;;;;;7.70;4.93;;;29.70;34.00;;;;;;5038127;28;20429;-76
2023/09/11 10:13:15;;;;;;;6.85;4.95;;;29.60;33.10;;;;;;5035715;28;20074;-74
2023/09/11 10:15:43;;;;;;;6.60;4.68;;;29.70;34.30;;;;;;5036464;28;20039;-74
2023/09/11 10:18:10;;;;;;;7.65;5.10;;;29.70;34.00;;;;;;5054726;28;20411;-77
2023/09/11 10:20:38;;;;;;;7.25;5.07;;;29.60;33.90;;;;;;5054736;28;20025;-73
2023/09/11 10:23:05;;;;;;;9.65;4.90;;;29.60;34.30;;;;;;5054498;28;20111;-77
2023/09/11 10:25:41;;;;;;;6.82;4.10;;;29.70;34.00;;;;;;5054936;28;20021;-78
2023/09/11 10:28:08;;;;;;;7.35;4.55;;;29.50;32.30;;;;;;5036409;28;20044;-73
2023/09/11 10:30:39;;;;;;;8.23;5.00;;;29.80;33.20;;;;;;5036303;28;20039;-74
2023/09/11 10:33:24;;;;;;;5.65;4.47;;;29.90;33.30;;;;;;5054407;28;20017;-73
2023/09/11 10:35:56;;;;;;;8.93;4.80;;;29.90;33.50;;;;;;5036618;28;20063;-74
2023/09/11 10:38:21;;;;;;;5.40;4.82;;;30.00;32.40;;;;;;5036674;28;20118;-74
2023/09/11 10:40:48;;;;;;;8.82;4.63;;;30.10;32.00;;;;;;5034015;28;20485;-74
2023/09/11 10:43:15;;;;;;;7.40;4.60;;;30.30;34.00;;;;;;5036094;28;20025;-73
2023/09/11 10:45:41;;;;;;;6.82;4.50;;;30.60;33.50;;;;;;5034812;28;20032;-75
2023/09/11 10:48:31;;;;;;;8.35;4.80;;;30.70;32.60;;;;;;5034317;28;20034;-74
2023/09/11 10:50:58;;;;;;;6.15;4.28;;;30.70;31.20;;;;;;5033468;28;20030;-73
2023/09/11 10:53:31;;;;;;;6.57;4.80;;;30.80;31.30;;;;;;5034974;28;20036;-74
2023/09/11 10:56:00;;;;;;;5.63;4.25;;;30.50;31.10;;;;;;5033551;28;20033;-76
2023/09/11 10:58:28;;;;;;;7.28;4.07;;;30.40;31.20;;;;;;5034306;28;20116;-77
2023/09/11 11:00:54;;;;;;;7.05;4.70;;;30.50;31.70;;;;;;5033032;28;20486;-73
2023/09/11 11:03:24;;;;;;;8.50;5.55;;;30.50;32.50;;;;;;5033256;28;20494;-76
2023/09/11 11:05:51;;;;;;;9.35;4.88;;;30.70;32.50;;;;;;5033028;28;20375;-76
2023/09/11 11:08:17;;;;;;;7.07;4.60;;;30.90;31.10;;;;;;5033107;28;20025;-73
2023/09/11 11:10:46;;;;;;;6.45;4.65;;;31.20;31.40;;;;;;5035572;28;20402;-74
2023/09/11 11:13:12;;;;;;;7.82;4.43;;;31.40;29.70;;;;;;5032932;28;20075;-76
2023/09/11 11:15:38;;;;;;;5.60;4.30;;;31.60;28.20;;;;;;5035833;28;20466;-76
2023/09/11 11:18:06;;;;;;;7.20;4.50;;;31.70;27.20;;;;;;5035424;28;20033;-76
2023/09/11 11:20:34;;;;;;;7.50;4.55;;;32.00;28.70;;;;;;5033102;28;20471;-74
2023/09/11 11:23:10;;;;;;;9.40;4.55;;;32.30;28.40;;;;;;5043429;28;20029;-74
2023/09/11 11:25:37;;;;;;;8.15;4.82;;;32.50;28.10;;;;;;5043866;28;20021;-73
2023/09/11 11:28:16;;;;;;;7.72;4.57;;;32.70;27.90;;;;;;5043841;28;20120;-73
2023/09/11 11:30:44;;;;;;;9.52;4.97;;;32.80;26.70;;;;;;5034071;28;20079;-75
2023/09/11 11:33:15;;;;;;;8.13;4.60;;;32.70;27.30;;;;;;5034383;28;20027;-75
2023/09/11 11:35:46;;;;;;;7.93;4.70;;;32.70;27.50;;;;;;5043591;28;20021;-76
2023/09/11 11:38:17;;;;;;;9.80;4.75;;;33.00;28.10;;;;;;5043333;28;20025;-76
2023/09/11 11:40:47;;;;;;;10.43;4.90;;;33.20;27.60;;;;;;5032787;28;20049;-77
2023/09/11 11:43:14;;;;;;;8.20;4.70;;;33.40;26.90;;;;;;5036429;28;20026;-76
2023/09/11 11:45:49;;;;;;;5.45;4.13;;;33.50;26.10;;;;;;5034808;28;20028;-76
2023/09/11 11:48:19;;;;;;;9.68;4.55;;;33.80;26.00;;;;;;5044896;28;20379;-76
2023/09/11 11:50:49;;;;;;;7.75;4.20;;;34.00;24.90;;;;;;5044561;28;20051;-75
2023/09/11 11:53:16;;;;;;;6.10;3.97;;;34.20;24.60;;;;;;5043016;28;20426;-73
2023/09/11 11:55:43;;;;;;;10.32;4.28;;;34.30;23.70;;;;;;5036340;28;20051;-74
2023/09/11 11:58:13;;;;;;;5.82;4.10;;;34.40;23.80;;;;;;5032482;28;20032;-74
2023/09/11 12:00:40;;;;;;;7.03;4.07;;;34.60;23.60;;;;;;5032424;28;20029;-75
2023/09/11 12:03:07;;;;;;;7.65;4.55;;;34.80;22.40;;;;;;5035262;28;20036;-76
2023/09/11 12:05:35;;;;;;;8.25;4.55;;;34.80;21.50;;;;;;5034931;28;20170;-76
2023/09/11 12:08:02;;;;;;;4.78;3.88;;;34.30;22.00;;;;;;5034164;28;20056;-74
2023/09/11 12:10:28;;;;;;;8.00;4.00;;;34.40;23.60;;;;;;5034444;28;20477;-74
2023/09/11 12:12:54;;;;;;;8.73;3.90;;;34.60;23.10;;;;;;5018082;28;20043;-74
2023/09/11 12:15:19;;;;;;;5.75;4.10;;;34.70;22.10;;;;;;5034971;28;20013;-76
2023/09/11 12:18:01;;;;;;;7.25;4.30;;;34.90;22.60;;;;;;5053060;28;20386;-78
2023/09/11 12:20:26;;;;;;;8.68;4.00;;;35.20;22.10;;;;;;5035123;28;20024;-78
2023/09/11 12:22:52;;;;;;;7.40;4.22;;;35.40;20.90;;;;;;5053396;28;20387;-78
2023/09/11 12:25:18;;;;;;;8.60;4.53;;;35.40;20.80;;;;;;5051597;28;20032;-77
2023/09/11 12:27:44;;;;;;;5.75;4.03;;;35.60;21.10;;;;;;5035911;28;20514;-80
2023/09/11 12:30:10;;;;;;;5.53;4.20;;;35.70;21.70;;;;;;5035367;28;20487;-77
2023/09/11 12:32:36;;;;;;;5.78;3.80;;;35.70;20.30;;;;;;5035562;28;20124;-75
2023/09/11 12:35:05;;;;;;;6.90;3.97;;;35.60;19.80;;;;;;5051586;28;20447;-75
2023/09/11 12:37:31;;;;;;;9.07;4.13;;;35.50;20.90;;;;;;5034495;28;20117;-76
2023/09/11 12:39:56;;;;;;;7.40;4.30;;;35.10;20.30;;;;;;5034983;28;20426;-73